Decoded Metar for KBRY ( in ) (IATA:) | Meteo·Mobile Aviation Weather
aviador You're here:

KBRY Decoded Metar

in
Report Time2018-09-18 23:15:00
UTC Time2018-09-18 23:31:44
Flight Rules vfr VFR
WindCalm
Visibility9999 m
Phenomena:N/A
Clouds:N/A
Expected CloudBase > 4,400 ft AGL from Temp-Dew spread
CeilingNone
Temp30°C
Dew Point19°C (52% RH)
Heat Index31.4°C
QNH1013 hPa
Raw Report
METAR KBRY 182315Z AUTO 00000KT 10SM CLR 30/19 A2991 RMK AO1=

Extra information for KBRY:More info

Social comments